West Yellowstone, MT

3:31 AM MST on February 09, 2016 (GMT -0700)
Lower Beartrap | | Change Station
CLOSE
Current Station
Personal Weather Station
Location: West Yellowstone, MT
Elevation: 6565 ft
Nearby Weather Stations

Elev 6565 ft 44.79 °N, 111.14 °W | Updated 60 seconds ago

Partly Cloudy
Partly Cloudy
23.4 °F
Feels Like 23 °F
N
2.2
Wind Variable Wind from South
Gusts 3.1 mph

Today
High -- | Low -- °F
--% Chance of Precip.
Yesterday
High -- | Low -- °F
Precip. -- in
Pressure 30.69 in
Visibility -9999.0 miles
Clouds
Windchill 23 °F
Dew Point 21 °F
Humidity 91%
Rainfall 0.00 in
Snow Depth Not available.
7:33 AM 5:44 PM
New Moon, 1% visible
METAR KP60 090956Z AUTO 00000KT M11/M13 A3056 RMK AO1 SLP390 T11111128
Pressure 30.69 in
Visibility -9999.0 miles
Clouds
Windchill 23 °F
Dew Point 21 °F
Humidity 91%
Rainfall 0.00 in
Snow Depth Not available.
7:33 AM 5:44 PM
New Moon, 1% visible
METAR KP60 090956Z AUTO 00000KT M11/M13 A3056 RMK AO1 SLP390 T11111128

10-Day Weather Forecast

Almanac

Astronomy

Feb. 09, 2016 Rise Set
Actual Time
Civil Twilight
Nautical Twilight
Astronomical Twilight
Moon
Length of Visible Light
Length of Day
Tomorrow will be .
, % of the Moon is Illuminated

Today's Extremes

State Highs State Lows

Community

WunderPhotos

Upload Photos

1,891,565 photos uploaded!

WunderBlog® & News

Nearby

Air Quality

  Air Quality AQ Index Pollutant
Not available.

Snow Depth

Station Depth Elevation

Earthquake Activity

City Distance Mag. Time & Date
Minimum magnitude displayed is 2.5.

Coastal Water Temperatures

Place Temperature

Stations

Nearby Weather Stations

Station Location Temp. Windchill Dew Point Humidity Wind Precip. Elev Updated Type
                   

Watches & Warnings

There are currently no watches in effect.